createdAt,value
2023-01-30T00:00:23.905Z,-2.68
2023-01-30T00:05:26.028Z,-2.77
2023-01-30T00:10:27.924Z,-2.78
2023-01-30T00:15:29.819Z,-2.76
2023-01-30T00:20:31.847Z,-2.85
2023-01-30T00:25:34.019Z,-2.81
2023-01-30T00:30:36.298Z,-2.91
2023-01-30T00:35:38.357Z,-2.86
2023-01-30T00:40:40.344Z,-2.86
2023-01-30T00:45:43.398Z,-2.87
2023-01-30T00:50:45.353Z,-2.73
2023-01-30T00:55:47.241Z,-2.68
2023-01-30T01:00:49.928Z,-2.68
2023-01-30T01:05:51.610Z,-2.80
2023-01-30T01:10:53.510Z,-2.78
2023-01-30T01:15:55.425Z,-2.92
2023-01-30T01:20:57.334Z,-2.80
2023-01-30T01:26:02.230Z,-2.88
2023-01-30T01:31:11.264Z,-2.91
2023-01-30T01:36:20.001Z,-2.90
2023-01-30T01:41:31.507Z,-2.90
2023-01-30T01:46:38.944Z,-2.97
2023-01-30T01:51:43.138Z,-2.95
2023-01-30T01:56:45.813Z,-3.01
2023-01-30T02:01:47.588Z,-3.15
2023-01-30T02:06:49.537Z,-3.09
2023-01-30T02:11:54.841Z,-3.06
2023-01-30T02:16:56.783Z,-2.93
2023-01-30T02:22:37.017Z,-2.95
2023-01-30T02:28:06.661Z,-3.11
2023-01-30T02:33:24.949Z,-3.21
2023-01-30T02:38:41.618Z,-3.25
2023-01-30T02:44:05.940Z,-3.20
2023-01-30T02:49:17.753Z,-3.18
2023-01-30T02:54:19.668Z,-3.03
2023-01-30T02:59:40.692Z,-3.10
2023-01-30T03:05:19.759Z,-3.10
2023-01-30T03:10:46.180Z,-3.01
2023-01-30T03:15:51.488Z,-2.93
2023-01-30T03:20:53.560Z,-2.82
2023-01-30T03:25:55.370Z,-2.86
2023-01-30T03:30:57.330Z,-2.87
2023-01-30T03:35:59.260Z,-2.75
2023-01-30T03:41:01.340Z,-2.90
2023-01-30T03:46:03.355Z,-2.71
2023-01-30T03:51:06.107Z,-2.66
2023-01-30T03:56:08.010Z,-2.71
2023-01-30T04:01:09.930Z,-2.69
2023-01-30T04:06:11.765Z,-2.79
2023-01-30T04:11:13.637Z,-2.85
2023-01-30T04:16:16.530Z,-2.87
2023-01-30T04:21:18.448Z,-2.79
2023-01-30T04:26:20.316Z,-2.82
2023-01-30T04:31:22.110Z,-2.88
2023-01-30T04:36:23.879Z,-2.91
2023-01-30T04:41:25.704Z,-2.92
2023-01-30T04:46:27.452Z,-2.92
2023-01-30T04:51:29.199Z,-2.93
2023-01-30T04:56:30.954Z,-2.97
2023-01-30T05:01:34.997Z,-2.85
2023-01-30T05:06:36.814Z,-2.91
2023-01-30T05:11:39.047Z,-2.87
2023-01-30T05:16:40.805Z,-2.82
2023-01-30T05:21:42.543Z,-2.98
2023-01-30T05:26:44.379Z,-2.90
2023-01-30T05:31:46.319Z,-2.90
2023-01-30T05:36:48.133Z,-2.90
2023-01-30T05:41:49.892Z,-2.87
2023-01-30T05:46:51.622Z,-2.92
2023-01-30T05:51:53.326Z,-2.97
2023-01-30T05:56:55.084Z,-2.99
2023-01-30T06:01:56.831Z,-2.86
2023-01-30T06:06:58.594Z,-2.94
2023-01-30T06:12:00.335Z,-2.91
2023-01-30T06:17:02.195Z,-2.86
2023-01-30T06:22:04.006Z,-2.88
2023-01-30T06:27:05.745Z,-2.86
2023-01-30T06:32:07.482Z,-2.79
2023-01-30T06:37:09.218Z,-2.69
2023-01-30T06:42:10.974Z,-2.70
2023-01-30T06:47:12.733Z,-2.62
2023-01-30T06:52:14.469Z,-2.65
2023-01-30T06:57:16.205Z,-2.59
2023-01-30T07:02:17.946Z,-2.58
2023-01-30T07:07:19.673Z,-2.71
2023-01-30T07:12:21.403Z,-2.71
2023-01-30T07:17:23.196Z,-2.52
2023-01-30T07:22:25.019Z,-2.52
2023-01-30T07:27:26.770Z,-2.55
2023-01-30T07:32:28.510Z,-2.53
2023-01-30T07:37:30.261Z,-2.57
2023-01-30T07:42:32.034Z,-2.55
2023-01-30T07:47:33.785Z,-2.53
2023-01-30T07:52:35.568Z,-2.38
2023-01-30T07:57:37.299Z,-2.44
2023-01-30T08:02:39.047Z,-2.45
2023-01-30T08:07:40.838Z,-2.32
2023-01-30T08:12:42.594Z,-2.34
2023-01-30T08:17:44.386Z,-2.31
2023-01-30T08:22:46.154Z,-2.19
2023-01-30T08:27:47.912Z,-2.22
2023-01-30T08:32:49.683Z,-1.92
2023-01-30T08:37:51.429Z,-2.02
2023-01-30T08:42:53.156Z,-2.00
2023-01-30T08:47:58.853Z,-1.88
2023-01-30T08:53:05.401Z,-1.85
2023-01-30T08:58:07.165Z,-1.86
2023-01-30T09:03:08.897Z,-1.82
2023-01-30T09:08:10.669Z,-1.85
2023-01-30T09:13:12.454Z,-1.76
2023-01-30T09:18:14.215Z,-1.57
2023-01-30T09:23:16.132Z,-1.46
2023-01-30T09:28:17.928Z,-1.44
2023-01-30T09:33:19.634Z,-1.32
2023-01-30T09:38:21.419Z,-1.38
2023-01-30T09:43:36.026Z,-1.41
2023-01-30T09:49:18.145Z,-1.25
2023-01-30T09:54:25.570Z,-1.32
2023-01-30T09:59:32.688Z,-1.36
2023-01-30T10:04:36.311Z,-1.44
2023-01-30T10:10:19.748Z,-1.49
2023-01-30T10:15:45.733Z,-1.45
2023-01-30T10:21:11.389Z,-1.41
2023-01-30T10:26:15.106Z,-1.32
2023-01-30T10:31:17.068Z,-1.27
2023-01-30T10:36:25.425Z,-1.36
2023-01-30T10:41:31.486Z,-1.18
2023-01-30T10:46:55.144Z,-1.39
2023-01-30T10:52:24.508Z,-1.39
2023-01-30T10:57:58.535Z,-1.34
2023-01-30T11:03:15.345Z,-1.29
2023-01-30T11:08:31.267Z,-1.33
2023-01-30T11:13:33.576Z,-1.23
2023-01-30T11:24:19.190Z,-1.17
2023-01-30T11:29:31.671Z,-1.18
2023-01-30T11:34:33.418Z,-1.17
2023-01-30T11:39:38.208Z,-1.13
2023-01-30T11:44:46.024Z,-1.16
2023-01-30T11:50:03.210Z,-1.08
2023-01-30T11:55:17.646Z,-1.22
2023-01-30T12:00:21.472Z,-1.22
2023-01-30T12:05:23.353Z,-1.20
2023-01-30T12:10:25.046Z,-1.23
2023-01-30T12:15:27.493Z,-1.22
2023-01-30T12:20:49.497Z,-1.32
2023-01-30T12:26:14.067Z,-1.32
2023-01-30T12:31:42.679Z,-1.36
2023-01-30T12:37:03.395Z,-1.42
2023-01-30T12:42:34.949Z,-1.39
2023-01-30T12:48:04.630Z,-1.36
2023-01-30T12:53:12.083Z,-1.33
2023-01-30T12:58:39.623Z,-1.36
2023-01-30T13:03:59.895Z,-1.25
2023-01-30T13:09:05.566Z,-1.40
2023-01-30T13:14:13.206Z,-1.36
2023-01-30T13:19:20.879Z,-1.35
2023-01-30T13:24:34.522Z,-1.35
2023-01-30T13:29:38.144Z,-1.32
2023-01-30T13:34:41.870Z,-1.38
2023-01-30T13:39:59.980Z,-1.40
2023-01-30T13:45:01.731Z,-1.40
2023-01-30T13:50:21.319Z,-1.39
2023-01-30T13:55:46.399Z,-1.49
2023-01-30T14:00:55.001Z,-1.57
2023-01-30T14:05:56.721Z,-1.62
2023-01-30T14:10:58.495Z,-1.63
2023-01-30T14:16:04.233Z,-1.65
2023-01-30T14:21:14.795Z,-1.65
2023-01-30T14:26:16.606Z,-1.64
2023-01-30T14:31:49.578Z,-1.52
2023-01-30T14:36:51.487Z,-1.55
2023-01-30T14:42:31.872Z,-1.59
2023-01-30T14:47:39.972Z,-1.47
2023-01-30T14:52:48.620Z,-1.48
2023-01-30T14:57:54.335Z,-1.47
2023-01-30T15:03:03.847Z,-1.41
2023-01-30T15:08:06.755Z,-1.37
2023-01-30T15:13:11.100Z,-1.38
2023-01-30T15:18:28.483Z,-1.37
2023-01-30T15:23:54.232Z,-1.33
2023-01-30T15:29:26.796Z,-1.28
2023-01-30T15:34:32.507Z,-1.24
2023-01-30T15:39:34.304Z,-1.17
2023-01-30T15:44:55.042Z,-1.12
2023-01-30T15:50:07.113Z,-1.11
2023-01-30T15:55:15.466Z,-1.15
2023-01-30T16:00:33.346Z,-1.15
2023-01-30T16:05:35.357Z,-1.20
2023-01-30T16:10:45.904Z,-1.12
2023-01-30T16:15:54.594Z,-1.05
2023-01-30T16:21:10.217Z,-1.06
2023-01-30T16:26:16.447Z,-1.06
2023-01-30T16:31:18.482Z,-1.04
2023-01-30T16:36:20.301Z,-1.04
2023-01-30T16:41:35.139Z,-1.05
2023-01-30T16:46:43.016Z,-1.05
2023-01-30T16:51:44.896Z,-1.03
2023-01-30T16:56:48.510Z,-1.00
2023-01-30T17:01:50.504Z,-1.04
2023-01-30T17:07:02.532Z,-1.07
2023-01-30T17:12:25.840Z,-1.10
2023-01-30T17:17:27.650Z,-1.07
2023-01-30T17:22:29.407Z,-1.16
2023-01-30T17:27:31.322Z,-1.13
2023-01-30T17:32:33.215Z,-1.23
2023-01-30T17:37:35.162Z,-1.19
2023-01-30T17:42:37.169Z,-1.32
2023-01-30T17:47:39.262Z,-1.38
2023-01-30T17:52:41.202Z,-1.34
2023-01-30T17:57:43.391Z,-1.38
2023-01-30T18:02:45.456Z,-1.41
2023-01-30T18:07:47.309Z,-1.39
2023-01-30T18:12:49.110Z,-1.35
2023-01-30T18:17:51.417Z,-1.38
2023-01-30T18:22:53.156Z,-1.42
2023-01-30T18:27:55.039Z,-1.38
2023-01-30T18:32:56.950Z,-1.42
2023-01-30T18:38:02.622Z,-1.40
2023-01-30T18:43:04.935Z,-1.36
2023-01-30T18:48:07.121Z,-1.26
2023-01-30T18:53:08.898Z,-1.22
2023-01-30T18:58:10.800Z,-1.20
2023-01-30T19:03:12.665Z,-1.29
2023-01-30T19:08:14.468Z,-1.39
2023-01-30T19:13:16.844Z,-1.40
2023-01-30T19:18:18.735Z,-1.43
2023-01-30T19:23:21.185Z,-1.47
2023-01-30T19:28:23.397Z,-1.51
2023-01-30T19:33:25.316Z,-1.53
2023-01-30T19:38:27.393Z,-1.56
2023-01-30T19:43:29.287Z,-1.59
2023-01-30T19:48:31.231Z,-1.60
2023-01-30T19:53:33.170Z,-1.58
2023-01-30T19:58:36.118Z,-1.63
2023-01-30T20:03:38.438Z,-1.73
2023-01-30T20:08:40.892Z,-1.77
2023-01-30T20:13:43.146Z,-1.82
2023-01-30T20:18:45.055Z,-1.87
2023-01-30T20:23:47.112Z,-1.91
2023-01-30T20:28:49.161Z,-1.89
2023-01-30T20:33:51.296Z,-1.91
2023-01-30T20:38:53.332Z,-1.87
2023-01-30T20:43:55.962Z,-1.91
2023-01-30T20:48:58.248Z,-1.95
2023-01-30T20:54:04.312Z,-1.97
2023-01-30T20:59:07.078Z,-1.93
2023-01-30T21:04:09.452Z,-2.01
2023-01-30T21:09:13.307Z,-1.96
2023-01-30T21:14:15.925Z,-1.96
2023-01-30T21:19:17.656Z,-2.08
2023-01-30T21:24:22.172Z,-2.01
2023-01-30T21:29:24.919Z,-2.05
2023-01-30T21:34:26.921Z,-2.05
2023-01-30T21:39:28.845Z,-2.03
2023-01-30T21:44:35.139Z,-2.06
2023-01-30T21:49:37.063Z,-2.09
2023-01-30T21:54:39.129Z,-2.13
2023-01-30T21:59:41.031Z,-2.24
2023-01-30T22:04:42.984Z,-2.13
2023-01-30T22:09:44.950Z,-2.17
2023-01-30T22:14:46.946Z,-2.09
2023-01-30T22:19:48.961Z,-2.11
2023-01-30T22:24:50.838Z,-2.07
2023-01-30T22:29:52.760Z,-2.14
2023-01-30T22:34:54.747Z,-2.07
2023-01-30T22:39:56.603Z,-2.09
2023-01-30T22:44:58.412Z,-2.06
2023-01-30T22:50:00.357Z,-2.08
2023-01-30T22:55:02.244Z,-2.05
2023-01-30T23:00:06.067Z,-2.07
2023-01-30T23:05:07.991Z,-2.17
2023-01-30T23:10:10.355Z,-2.09
2023-01-30T23:15:12.351Z,-2.05
2023-01-30T23:20:14.344Z,-2.04
2023-01-30T23:25:16.327Z,-1.99
2023-01-30T23:30:18.308Z,-1.98
2023-01-30T23:35:20.546Z,-2.03
2023-01-30T23:40:22.707Z,-1.99
2023-01-30T23:45:27.039Z,-2.00
2023-01-30T23:50:28.923Z,-2.03
2023-01-30T23:55:32.529Z,-2.05
